sensor_id;sensor_type;location;lat;lon;timestamp;temperature;humidity
11107;DHT22;5607;48.302;14.294;2023-06-26T00:00:20;21.40;99.90
11107;DHT22;5607;48.302;14.294;2023-06-26T00:03:06;21.50;99.90
11107;DHT22;5607;48.302;14.294;2023-06-26T00:05:52;21.50;99.90
11107;DHT22;5607;48.302;14.294;2023-06-26T00:08:39;21.50;99.90
11107;DHT22;5607;48.302;14.294;2023-06-26T00:11:25;21.60;99.90
11107;DHT22;5607;48.302;14.294;2023-06-26T00:14:13;21.60;99.90
11107;DHT22;5607;48.302;14.294;2023-06-26T00:16:59;21.50;99.90
11107;DHT22;5607;48.302;14.294;2023-06-26T00:19:45;21.30;99.90
11107;DHT22;5607;48.302;14.294;2023-06-26T00:22:32;21.20;99.90
11107;DHT22;5607;48.302;14.294;2023-06-26T00:25:18;21.10;99.90
11107;DHT22;5607;48.302;14.294;2023-06-26T00:28:04;21.00;99.90
11107;DHT22;5607;48.302;14.294;2023-06-26T00:30:50;21.00;99.90
11107;DHT22;5607;48.302;14.294;2023-06-26T00:33:36;20.90;99.90
11107;DHT22;5607;48.302;14.294;2023-06-26T00:36:23;20.80;99.90
11107;DHT22;5607;48.302;14.294;2023-06-26T00:39:09;20.70;99.90
11107;DHT22;5607;48.302;14.294;2023-06-26T00:41:56;20.80;99.90
11107;DHT22;5607;48.302;14.294;2023-06-26T00:44:43;20.80;99.90
11107;DHT22;5607;48.302;14.294;2023-06-26T00:47:29;20.80;99.90
11107;DHT22;5607;48.302;14.294;2023-06-26T00:50:16;20.90;99.90
11107;DHT22;5607;48.302;14.294;2023-06-26T00:53:03;20.90;99.90
11107;DHT22;5607;48.302;14.294;2023-06-26T00:55:50;20.90;99.90
11107;DHT22;5607;48.302;14.294;2023-06-26T00:58:36;20.90;99.90
11107;DHT22;5607;48.302;14.294;2023-06-26T01:01:22;20.90;99.90
11107;DHT22;5607;48.302;14.294;2023-06-26T01:04:11;20.90;99.90
11107;DHT22;5607;48.302;14.294;2023-06-26T01:07:03;21.00;99.90
11107;DHT22;5607;48.302;14.294;2023-06-26T01:09:50;21.00;99.90
11107;DHT22;5607;48.302;14.294;2023-06-26T01:12:36;20.90;99.90
11107;DHT22;5607;48.302;14.294;2023-06-26T01:15:22;20.90;99.90
11107;DHT22;5607;48.302;14.294;2023-06-26T01:18:08;20.80;99.90
11107;DHT22;5607;48.302;14.294;2023-06-26T01:20:55;20.70;99.90
11107;DHT22;5607;48.302;14.294;2023-06-26T01:23:56;20.70;99.90
11107;DHT22;5607;48.302;14.294;2023-06-26T01:26:45;20.70;99.90
11107;DHT22;5607;48.302;14.294;2023-06-26T01:29:31;20.70;99.90
11107;DHT22;5607;48.302;14.294;2023-06-26T01:32:18;20.70;99.90
11107;DHT22;5607;48.302;14.294;2023-06-26T01:35:05;20.60;99.90
11107;DHT22;5607;48.302;14.294;2023-06-26T01:37:52;20.50;99.90
11107;DHT22;5607;48.302;14.294;2023-06-26T01:40:38;20.50;99.90
11107;DHT22;5607;48.302;14.294;2023-06-26T01:43:29;20.40;99.90
11107;DHT22;5607;48.302;14.294;2023-06-26T01:46:25;20.40;99.90
11107;DHT22;5607;48.302;14.294;2023-06-26T01:52:25;20.30;99.90
11107;DHT22;5607;48.302;14.294;2023-06-26T01:58:05;20.20;99.90
11107;DHT22;5607;48.302;14.294;2023-06-26T02:00:52;20.10;99.90
11107;DHT22;5607;48.302;14.294;2023-06-26T02:03:39;20.00;99.90
11107;DHT22;5607;48.302;14.294;2023-06-26T02:06:25;19.90;99.90
11107;DHT22;5607;48.302;14.294;2023-06-26T02:09:11;19.90;99.90
11107;DHT22;5607;48.302;14.294;2023-06-26T02:11:58;19.90;99.90
11107;DHT22;5607;48.302;14.294;2023-06-26T02:14:44;19.90;99.90
11107;DHT22;5607;48.302;14.294;2023-06-26T02:17:30;19.90;99.90
11107;DHT22;5607;48.302;14.294;2023-06-26T02:20:18;19.90;99.90
11107;DHT22;5607;48.302;14.294;2023-06-26T02:23:04;20.00;99.90
11107;DHT22;5607;48.302;14.294;2023-06-26T02:25:50;20.10;99.90
11107;DHT22;5607;48.302;14.294;2023-06-26T02:28:37;20.10;99.90
11107;DHT22;5607;48.302;14.294;2023-06-26T02:31:23;20.00;99.90
11107;DHT22;5607;48.302;14.294;2023-06-26T02:34:09;20.00;99.90
11107;DHT22;5607;48.302;14.294;2023-06-26T02:36:56;20.00;99.90
11107;DHT22;5607;48.302;14.294;2023-06-26T02:39:43;20.00;99.90
11107;DHT22;5607;48.302;14.294;2023-06-26T02:42:31;20.00;99.90
11107;DHT22;5607;48.302;14.294;2023-06-26T02:45:17;20.00;99.90
11107;DHT22;5607;48.302;14.294;2023-06-26T02:48:03;20.10;99.90
11107;DHT22;5607;48.302;14.294;2023-06-26T02:50:50;20.10;99.90
11107;DHT22;5607;48.302;14.294;2023-06-26T02:53:36;20.10;99.90
11107;DHT22;5607;48.302;14.294;2023-06-26T02:56:22;20.20;99.90
11107;DHT22;5607;48.302;14.294;2023-06-26T02:59:09;20.20;99.90
11107;DHT22;5607;48.302;14.294;2023-06-26T03:01:55;20.20;99.90
11107;DHT22;5607;48.302;14.294;2023-06-26T03:04:41;20.00;99.90
11107;DHT22;5607;48.302;14.294;2023-06-26T03:07:29;19.90;99.90
11107;DHT22;5607;48.302;14.294;2023-06-26T03:10:15;19.80;99.90
11107;DHT22;5607;48.302;14.294;2023-06-26T03:13:01;19.70;99.90
11107;DHT22;5607;48.302;14.294;2023-06-26T03:15:47;19.60;99.90
11107;DHT22;5607;48.302;14.294;2023-06-26T03:18:34;19.50;99.90
11107;DHT22;5607;48.302;14.294;2023-06-26T03:21:20;19.40;99.90
11107;DHT22;5607;48.302;14.294;2023-06-26T03:24:06;19.40;99.90
11107;DHT22;5607;48.302;14.294;2023-06-26T03:26:52;19.30;99.90
11107;DHT22;5607;48.302;14.294;2023-06-26T03:29:39;19.30;99.90
11107;DHT22;5607;48.302;14.294;2023-06-26T03:32:25;19.30;99.90
11107;DHT22;5607;48.302;14.294;2023-06-26T03:35:11;19.30;99.90
11107;DHT22;5607;48.302;14.294;2023-06-26T03:37:58;19.30;99.90
11107;DHT22;5607;48.302;14.294;2023-06-26T03:40:44;19.30;99.90
11107;DHT22;5607;48.302;14.294;2023-06-26T03:43:30;19.20;99.90
11107;DHT22;5607;48.302;14.294;2023-06-26T03:46:17;19.20;99.90
11107;DHT22;5607;48.302;14.294;2023-06-26T03:49:03;19.20;99.90
11107;DHT22;5607;48.302;14.294;2023-06-26T03:51:49;19.10;99.90
11107;DHT22;5607;48.302;14.294;2023-06-26T03:54:36;19.10;99.90
11107;DHT22;5607;48.302;14.294;2023-06-26T03:57:22;19.20;99.90
11107;DHT22;5607;48.302;14.294;2023-06-26T04:00:08;19.20;99.90
11107;DHT22;5607;48.302;14.294;2023-06-26T04:02:55;19.30;99.90
11107;DHT22;5607;48.302;14.294;2023-06-26T04:05:41;19.30;99.90
11107;DHT22;5607;48.302;14.294;2023-06-26T04:08:28;19.30;99.90
11107;DHT22;5607;48.302;14.294;2023-06-26T04:11:14;19.30;99.90
11107;DHT22;5607;48.302;14.294;2023-06-26T04:14:00;19.30;99.90
11107;DHT22;5607;48.302;14.294;2023-06-26T04:16:46;19.30;99.90
11107;DHT22;5607;48.302;14.294;2023-06-26T04:19:33;19.40;99.90
11107;DHT22;5607;48.302;14.294;2023-06-26T04:22:19;19.40;99.90
11107;DHT22;5607;48.302;14.294;2023-06-26T04:25:06;19.40;99.90
11107;DHT22;5607;48.302;14.294;2023-06-26T04:27:52;19.50;99.90
11107;DHT22;5607;48.302;14.294;2023-06-26T04:30:39;19.50;99.90
11107;DHT22;5607;48.302;14.294;2023-06-26T04:33:25;19.60;99.90
11107;DHT22;5607;48.302;14.294;2023-06-26T04:36:12;19.60;99.90
11107;DHT22;5607;48.302;14.294;2023-06-26T04:38:59;19.70;99.90
11107;DHT22;5607;48.302;14.294;2023-06-26T04:41:45;19.80;99.90
11107;DHT22;5607;48.302;14.294;2023-06-26T04:44:31;19.80;99.90
11107;DHT22;5607;48.302;14.294;2023-06-26T04:47:19;19.80;99.90
11107;DHT22;5607;48.302;14.294;2023-06-26T04:50:05;19.80;99.90
11107;DHT22;5607;48.302;14.294;2023-06-26T04:52:52;19.80;99.90
11107;DHT22;5607;48.302;14.294;2023-06-26T04:55:38;19.90;99.90
11107;DHT22;5607;48.302;14.294;2023-06-26T04:58:25;19.90;99.90
11107;DHT22;5607;48.302;14.294;2023-06-26T05:01:11;19.90;99.90
11107;DHT22;5607;48.302;14.294;2023-06-26T05:03:59;20.00;99.90
11107;DHT22;5607;48.302;14.294;2023-06-26T05:06:45;20.00;99.90
11107;DHT22;5607;48.302;14.294;2023-06-26T05:09:32;20.10;99.90
11107;DHT22;5607;48.302;14.294;2023-06-26T05:12:18;20.20;99.90
11107;DHT22;5607;48.302;14.294;2023-06-26T05:15:04;20.40;99.90
11107;DHT22;5607;48.302;14.294;2023-06-26T05:17:50;20.50;99.90
11107;DHT22;5607;48.302;14.294;2023-06-26T05:20:37;20.60;99.90
11107;DHT22;5607;48.302;14.294;2023-06-26T05:23:23;20.60;99.90
11107;DHT22;5607;48.302;14.294;2023-06-26T05:26:11;20.70;99.90
11107;DHT22;5607;48.302;14.294;2023-06-26T05:28:59;20.70;99.90
11107;DHT22;5607;48.302;14.294;2023-06-26T05:31:45;20.80;99.90
11107;DHT22;5607;48.302;14.294;2023-06-26T05:34:32;20.80;99.90
11107;DHT22;5607;48.302;14.294;2023-06-26T05:37:20;20.90;99.90
11107;DHT22;5607;48.302;14.294;2023-06-26T05:40:08;21.00;99.90
11107;DHT22;5607;48.302;14.294;2023-06-26T05:42:55;21.10;99.90
11107;DHT22;5607;48.302;14.294;2023-06-26T05:45:41;21.20;99.90
11107;DHT22;5607;48.302;14.294;2023-06-26T05:48:27;21.20;99.90
11107;DHT22;5607;48.302;14.294;2023-06-26T05:51:14;21.30;99.90
11107;DHT22;5607;48.302;14.294;2023-06-26T05:54:00;21.30;99.90
11107;DHT22;5607;48.302;14.294;2023-06-26T05:56:47;21.40;99.90
11107;DHT22;5607;48.302;14.294;2023-06-26T05:59:33;21.50;99.90
11107;DHT22;5607;48.302;14.294;2023-06-26T06:02:20;21.60;99.90
11107;DHT22;5607;48.302;14.294;2023-06-26T06:05:07;21.70;99.90
11107;DHT22;5607;48.302;14.294;2023-06-26T06:07:53;21.70;99.90
11107;DHT22;5607;48.302;14.294;2023-06-26T06:10:39;21.70;99.90
11107;DHT22;5607;48.302;14.294;2023-06-26T06:13:26;21.90;99.90
11107;DHT22;5607;48.302;14.294;2023-06-26T06:16:12;22.10;99.90
11107;DHT22;5607;48.302;14.294;2023-06-26T06:18:59;22.20;99.90
11107;DHT22;5607;48.302;14.294;2023-06-26T06:21:46;22.40;99.90
11107;DHT22;5607;48.302;14.294;2023-06-26T06:24:32;22.60;99.90
11107;DHT22;5607;48.302;14.294;2023-06-26T06:27:19;22.70;99.90
11107;DHT22;5607;48.302;14.294;2023-06-26T06:30:05;22.80;99.90
11107;DHT22;5607;48.302;14.294;2023-06-26T06:32:51;22.90;99.90
11107;DHT22;5607;48.302;14.294;2023-06-26T06:35:38;23.00;99.90
11107;DHT22;5607;48.302;14.294;2023-06-26T06:38:24;23.20;99.90
11107;DHT22;5607;48.302;14.294;2023-06-26T06:41:11;23.30;99.90
11107;DHT22;5607;48.302;14.294;2023-06-26T06:43:58;23.50;99.90
11107;DHT22;5607;48.302;14.294;2023-06-26T06:46:44;23.60;99.90
11107;DHT22;5607;48.302;14.294;2023-06-26T06:49:31;23.80;99.90
11107;DHT22;5607;48.302;14.294;2023-06-26T06:52:17;23.90;99.90
11107;DHT22;5607;48.302;14.294;2023-06-26T06:55:03;23.90;99.90
11107;DHT22;5607;48.302;14.294;2023-06-26T06:57:54;24.10;99.90
11107;DHT22;5607;48.302;14.294;2023-06-26T07:00:40;24.20;99.90
11107;DHT22;5607;48.302;14.294;2023-06-26T07:03:26;24.30;99.90
11107;DHT22;5607;48.302;14.294;2023-06-26T07:06:13;24.40;99.90
11107;DHT22;5607;48.302;14.294;2023-06-26T07:08:59;24.50;99.90
11107;DHT22;5607;48.302;14.294;2023-06-26T07:11:45;24.60;99.90
11107;DHT22;5607;48.302;14.294;2023-06-26T07:14:32;24.70;99.90
11107;DHT22;5607;48.302;14.294;2023-06-26T07:17:18;24.90;99.90
11107;DHT22;5607;48.302;14.294;2023-06-26T07:20:04;25.10;99.90
11107;DHT22;5607;48.302;14.294;2023-06-26T07:22:54;25.00;99.90
11107;DHT22;5607;48.302;14.294;2023-06-26T07:25:40;25.10;99.90
11107;DHT22;5607;48.302;14.294;2023-06-26T07:28:26;25.40;99.90
11107;DHT22;5607;48.302;14.294;2023-06-26T07:31:13;25.40;99.90
11107;DHT22;5607;48.302;14.294;2023-06-26T07:34:00;25.50;99.90
11107;DHT22;5607;48.302;14.294;2023-06-26T07:36:46;25.70;99.90
11107;DHT22;5607;48.302;14.294;2023-06-26T07:39:32;25.80;99.90
11107;DHT22;5607;48.302;14.294;2023-06-26T07:42:19;26.00;99.90
11107;DHT22;5607;48.302;14.294;2023-06-26T07:45:06;26.10;99.90
11107;DHT22;5607;48.302;14.294;2023-06-26T07:47:56;26.20;99.90
11107;DHT22;5607;48.302;14.294;2023-06-26T07:50:43;26.20;99.90
11107;DHT22;5607;48.302;14.294;2023-06-26T07:53:29;26.10;99.90
11107;DHT22;5607;48.302;14.294;2023-06-26T07:56:15;26.30;99.90
11107;DHT22;5607;48.302;14.294;2023-06-26T07:59:01;26.60;99.90
11107;DHT22;5607;48.302;14.294;2023-06-26T08:01:50;26.70;99.90
11107;DHT22;5607;48.302;14.294;2023-06-26T08:04:37;26.80;99.90
11107;DHT22;5607;48.302;14.294;2023-06-26T08:07:23;26.60;99.90
11107;DHT22;5607;48.302;14.294;2023-06-26T08:10:10;26.50;99.90
11107;DHT22;5607;48.302;14.294;2023-06-26T08:12:58;26.30;99.90
11107;DHT22;5607;48.302;14.294;2023-06-26T08:15:44;26.40;99.90
11107;DHT22;5607;48.302;14.294;2023-06-26T08:18:31;26.70;99.90
11107;DHT22;5607;48.302;14.294;2023-06-26T08:21:17;27.00;99.90
11107;DHT22;5607;48.302;14.294;2023-06-26T08:24:03;27.20;99.90
11107;DHT22;5607;48.302;14.294;2023-06-26T08:26:49;27.50;99.90
11107;DHT22;5607;48.302;14.294;2023-06-26T08:29:35;27.60;99.90
11107;DHT22;5607;48.302;14.294;2023-06-26T08:32:22;27.60;99.90
11107;DHT22;5607;48.302;14.294;2023-06-26T08:35:08;27.50;99.90
11107;DHT22;5607;48.302;14.294;2023-06-26T08:37:56;27.50;99.90
11107;DHT22;5607;48.302;14.294;2023-06-26T08:40:42;27.50;99.90
11107;DHT22;5607;48.302;14.294;2023-06-26T08:43:28;27.50;99.90
11107;DHT22;5607;48.302;14.294;2023-06-26T08:46:15;27.20;99.90
11107;DHT22;5607;48.302;14.294;2023-06-26T08:49:08;27.20;99.90
11107;DHT22;5607;48.302;14.294;2023-06-26T08:52:02;27.40;99.90
11107;DHT22;5607;48.302;14.294;2023-06-26T08:54:51;27.50;99.90
11107;DHT22;5607;48.302;14.294;2023-06-26T08:57:38;27.50;99.90
11107;DHT22;5607;48.302;14.294;2023-06-26T09:00:25;27.20;99.90
11107;DHT22;5607;48.302;14.294;2023-06-26T09:03:11;27.10;99.90
11107;DHT22;5607;48.302;14.294;2023-06-26T09:05:58;27.00;99.90
11107;DHT22;5607;48.302;14.294;2023-06-26T09:08:45;26.80;99.90
11107;DHT22;5607;48.302;14.294;2023-06-26T09:11:31;26.80;99.90
11107;DHT22;5607;48.302;14.294;2023-06-26T09:14:17;27.00;99.90
11107;DHT22;5607;48.302;14.294;2023-06-26T09:17:04;27.20;99.90
11107;DHT22;5607;48.302;14.294;2023-06-26T09:19:50;27.30;99.90
11107;DHT22;5607;48.302;14.294;2023-06-26T09:22:37;27.20;99.90
11107;DHT22;5607;48.302;14.294;2023-06-26T09:25:24;27.20;99.90
11107;DHT22;5607;48.302;14.294;2023-06-26T09:28:10;27.40;99.90
11107;DHT22;5607;48.302;14.294;2023-06-26T09:31:00;27.60;99.90
11107;DHT22;5607;48.302;14.294;2023-06-26T09:33:46;27.80;99.90
11107;DHT22;5607;48.302;14.294;2023-06-26T09:36:34;27.80;99.90
11107;DHT22;5607;48.302;14.294;2023-06-26T09:39:22;27.70;99.90
11107;DHT22;5607;48.302;14.294;2023-06-26T09:42:08;27.50;99.90
11107;DHT22;5607;48.302;14.294;2023-06-26T09:44:55;27.70;99.90
11107;DHT22;5607;48.302;14.294;2023-06-26T09:47:44;27.80;99.90
11107;DHT22;5607;48.302;14.294;2023-06-26T09:50:32;27.90;99.90
11107;DHT22;5607;48.302;14.294;2023-06-26T09:53:19;27.90;99.90
11107;DHT22;5607;48.302;14.294;2023-06-26T09:56:06;27.90;99.90
11107;DHT22;5607;48.302;14.294;2023-06-26T09:58:55;27.90;99.90
11107;DHT22;5607;48.302;14.294;2023-06-26T10:01:45;27.70;99.90
11107;DHT22;5607;48.302;14.294;2023-06-26T10:07:55;27.90;99.90
11107;DHT22;5607;48.302;14.294;2023-06-26T10:10:42;27.80;99.90
11107;DHT22;5607;48.302;14.294;2023-06-26T10:13:30;27.80;99.90
11107;DHT22;5607;48.302;14.294;2023-06-26T10:16:21;27.60;99.90
11107;DHT22;5607;48.302;14.294;2023-06-26T10:19:08;27.70;99.90
11107;DHT22;5607;48.302;14.294;2023-06-26T10:21:56;27.70;99.90
11107;DHT22;5607;48.302;14.294;2023-06-26T10:24:45;27.50;99.90
11107;DHT22;5607;48.302;14.294;2023-06-26T10:27:33;27.70;99.00
11107;DHT22;5607;48.302;14.294;2023-06-26T10:30:23;27.70;99.90
11107;DHT22;5607;48.302;14.294;2023-06-26T10:33:10;27.70;99.90
11107;DHT22;5607;48.302;14.294;2023-06-26T10:36:13;27.60;99.90
11107;DHT22;5607;48.302;14.294;2023-06-26T10:39:05;27.50;99.90
11107;DHT22;5607;48.302;14.294;2023-06-26T10:41:54;27.70;99.90
11107;DHT22;5607;48.302;14.294;2023-06-26T10:44:41;27.90;99.90
11107;DHT22;5607;48.302;14.294;2023-06-26T10:47:32;27.80;99.40
11107;DHT22;5607;48.302;14.294;2023-06-26T10:50:28;27.90;99.80
11107;DHT22;5607;48.302;14.294;2023-06-26T10:56:15;28.10;99.90
11107;DHT22;5607;48.302;14.294;2023-06-26T10:59:10;28.00;97.70
11107;DHT22;5607;48.302;14.294;2023-06-26T11:01:59;28.00;97.20
11107;DHT22;5607;48.302;14.294;2023-06-26T11:04:46;28.20;94.50
11107;DHT22;5607;48.302;14.294;2023-06-26T11:07:33;28.20;98.90
11107;DHT22;5607;48.302;14.294;2023-06-26T11:10:19;28.30;98.10
11107;DHT22;5607;48.302;14.294;2023-06-26T11:13:05;28.60;94.50
11107;DHT22;5607;48.302;14.294;2023-06-26T11:15:51;29.00;90.20
11107;DHT22;5607;48.302;14.294;2023-06-26T11:18:38;29.20;90.50
11107;DHT22;5607;48.302;14.294;2023-06-26T11:21:24;29.30;84.00
11107;DHT22;5607;48.302;14.294;2023-06-26T11:24:11;29.40;83.80
11107;DHT22;5607;48.302;14.294;2023-06-26T11:26:59;29.40;88.90
11107;DHT22;5607;48.302;14.294;2023-06-26T11:29:48;29.40;82.10
11107;DHT22;5607;48.302;14.294;2023-06-26T11:32:39;29.30;91.70
11107;DHT22;5607;48.302;14.294;2023-06-26T11:35:25;29.30;84.20
11107;DHT22;5607;48.302;14.294;2023-06-26T11:38:20;29.60;80.50
11107;DHT22;5607;48.302;14.294;2023-06-26T11:41:06;29.80;79.00
11107;DHT22;5607;48.302;14.294;2023-06-26T11:43:54;29.60;77.00
11107;DHT22;5607;48.302;14.294;2023-06-26T11:46:56;29.60;71.10
11107;DHT22;5607;48.302;14.294;2023-06-26T11:49:52;29.60;60.10
11107;DHT22;5607;48.302;14.294;2023-06-26T11:52:45;29.60;77.50
11107;DHT22;5607;48.302;14.294;2023-06-26T11:55:40;29.70;76.20
11107;DHT22;5607;48.302;14.294;2023-06-26T11:58:26;29.80;82.70
11107;DHT22;5607;48.302;14.294;2023-06-26T12:01:15;29.90;87.30
11107;DHT22;5607;48.302;14.294;2023-06-26T12:04:05;30.00;94.70
11107;DHT22;5607;48.302;14.294;2023-06-26T12:06:52;30.20;77.90
11107;DHT22;5607;48.302;14.294;2023-06-26T12:09:43;30.40;73.50
11107;DHT22;5607;48.302;14.294;2023-06-26T12:12:31;30.50;72.50
11107;DHT22;5607;48.302;14.294;2023-06-26T12:15:19;30.80;78.40
11107;DHT22;5607;48.302;14.294;2023-06-26T12:18:08;30.70;84.90
11107;DHT22;5607;48.302;14.294;2023-06-26T12:20:55;30.70;66.90
11107;DHT22;5607;48.302;14.294;2023-06-26T12:23:41;30.70;57.00
11107;DHT22;5607;48.302;14.294;2023-06-26T12:26:28;30.70;57.20
11107;DHT22;5607;48.302;14.294;2023-06-26T12:29:19;30.80;59.30
11107;DHT22;5607;48.302;14.294;2023-06-26T12:32:09;31.10;68.30
11107;DHT22;5607;48.302;14.294;2023-06-26T12:34:56;31.40;66.40
11107;DHT22;5607;48.302;14.294;2023-06-26T12:37:43;31.40;63.10
11107;DHT22;5607;48.302;14.294;2023-06-26T12:40:30;31.20;58.70
11107;DHT22;5607;48.302;14.294;2023-06-26T12:43:23;31.30;61.90
11107;DHT22;5607;48.302;14.294;2023-06-26T12:46:10;31.10;64.60
11107;DHT22;5607;48.302;14.294;2023-06-26T12:48:57;31.20;63.30
11107;DHT22;5607;48.302;14.294;2023-06-26T12:51:45;31.40;68.20
11107;DHT22;5607;48.302;14.294;2023-06-26T12:54:32;31.70;62.30
11107;DHT22;5607;48.302;14.294;2023-06-26T12:57:19;31.70;65.80
11107;DHT22;5607;48.302;14.294;2023-06-26T13:00:05;31.70;67.80
11107;DHT22;5607;48.302;14.294;2023-06-26T13:02:53;31.90;65.90
11107;DHT22;5607;48.302;14.294;2023-06-26T13:05:39;32.10;66.30
11107;DHT22;5607;48.302;14.294;2023-06-26T13:08:25;32.10;68.30
11107;DHT22;5607;48.302;14.294;2023-06-26T13:11:11;32.60;70.90
11107;DHT22;5607;48.302;14.294;2023-06-26T13:13:58;32.90;69.60
11107;DHT22;5607;48.302;14.294;2023-06-26T13:16:45;33.00;72.50
11107;DHT22;5607;48.302;14.294;2023-06-26T13:19:31;33.00;69.30
11107;DHT22;5607;48.302;14.294;2023-06-26T13:22:17;33.00;67.60
11107;DHT22;5607;48.302;14.294;2023-06-26T13:25:04;33.90;56.70
11107;DHT22;5607;48.302;14.294;2023-06-26T13:27:50;34.30;65.60
11107;DHT22;5607;48.302;14.294;2023-06-26T13:30:36;35.10;49.20
11107;DHT22;5607;48.302;14.294;2023-06-26T13:33:22;34.40;53.70
11107;DHT22;5607;48.302;14.294;2023-06-26T13:36:11;35.20;52.20
11107;DHT22;5607;48.302;14.294;2023-06-26T13:38:57;36.30;56.70
11107;DHT22;5607;48.302;14.294;2023-06-26T13:41:44;36.80;50.00
11107;DHT22;5607;48.302;14.294;2023-06-26T13:44:30;38.30;45.80
11107;DHT22;5607;48.302;14.294;2023-06-26T13:47:16;40.00;39.30
11107;DHT22;5607;48.302;14.294;2023-06-26T13:50:03;40.80;37.10
11107;DHT22;5607;48.302;14.294;2023-06-26T13:52:50;42.30;33.80
11107;DHT22;5607;48.302;14.294;2023-06-26T13:55:37;43.30;30.70
11107;DHT22;5607;48.302;14.294;2023-06-26T13:58:25;43.30;30.00
11107;DHT22;5607;48.302;14.294;2023-06-26T14:01:13;41.60;32.90
11107;DHT22;5607;48.302;14.294;2023-06-26T14:03:59;40.30;40.60
11107;DHT22;5607;48.302;14.294;2023-06-26T14:06:46;41.40;40.30
11107;DHT22;5607;48.302;14.294;2023-06-26T14:09:32;44.50;34.90
11107;DHT22;5607;48.302;14.294;2023-06-26T14:12:18;46.30;34.00
11107;DHT22;5607;48.302;14.294;2023-06-26T14:15:04;43.80;39.30
11107;DHT22;5607;48.302;14.294;2023-06-26T14:17:51;43.50;44.70
11107;DHT22;5607;48.302;14.294;2023-06-26T14:20:38;44.40;34.50
11107;DHT22;5607;48.302;14.294;2023-06-26T14:23:24;42.80;40.80
11107;DHT22;5607;48.302;14.294;2023-06-26T14:26:10;43.40;41.00
11107;DHT22;5607;48.302;14.294;2023-06-26T14:28:57;44.70;40.20
11107;DHT22;5607;48.302;14.294;2023-06-26T14:31:43;46.60;35.80
11107;DHT22;5607;48.302;14.294;2023-06-26T14:34:30;47.70;40.70
11107;DHT22;5607;48.302;14.294;2023-06-26T14:37:16;49.30;36.40
11107;DHT22;5607;48.302;14.294;2023-06-26T14:40:06;49.40;26.50
11107;DHT22;5607;48.302;14.294;2023-06-26T14:42:52;50.20;37.00
11107;DHT22;5607;48.302;14.294;2023-06-26T14:45:39;51.50;40.30
11107;DHT22;5607;48.302;14.294;2023-06-26T14:48:25;50.50;38.30
11107;DHT22;5607;48.302;14.294;2023-06-26T14:51:11;50.60;47.90
11107;DHT22;5607;48.302;14.294;2023-06-26T14:53:57;50.60;46.50
11107;DHT22;5607;48.302;14.294;2023-06-26T14:56:44;49.80;52.90
11107;DHT22;5607;48.302;14.294;2023-06-26T14:59:31;46.70;61.10
11107;DHT22;5607;48.302;14.294;2023-06-26T15:02:18;47.20;54.20
11107;DHT22;5607;48.302;14.294;2023-06-26T15:05:04;48.50;53.80
11107;DHT22;5607;48.302;14.294;2023-06-26T15:07:50;49.50;43.20
11107;DHT22;5607;48.302;14.294;2023-06-26T15:10:36;49.80;48.30
11107;DHT22;5607;48.302;14.294;2023-06-26T15:13:23;51.20;48.30
11107;DHT22;5607;48.302;14.294;2023-06-26T15:16:09;50.80;50.20
11107;DHT22;5607;48.302;14.294;2023-06-26T15:18:55;51.70;54.80
11107;DHT22;5607;48.302;14.294;2023-06-26T15:21:42;51.40;52.20
11107;DHT22;5607;48.302;14.294;2023-06-26T15:24:28;51.90;56.30
11107;DHT22;5607;48.302;14.294;2023-06-26T15:27:14;51.50;50.10
11107;DHT22;5607;48.302;14.294;2023-06-26T15:30:00;51.70;49.90
11107;DHT22;5607;48.302;14.294;2023-06-26T15:32:47;51.10;51.10
11107;DHT22;5607;48.302;14.294;2023-06-26T15:35:33;52.00;51.50
11107;DHT22;5607;48.302;14.294;2023-06-26T15:38:19;52.80;55.80
11107;DHT22;5607;48.302;14.294;2023-06-26T15:41:06;52.70;55.40
11107;DHT22;5607;48.302;14.294;2023-06-26T15:43:52;52.00;57.00
11107;DHT22;5607;48.302;14.294;2023-06-26T15:46:38;49.40;64.40
11107;DHT22;5607;48.302;14.294;2023-06-26T15:49:24;50.10;59.00
11107;DHT22;5607;48.302;14.294;2023-06-26T15:52:10;49.30;65.10
11107;DHT22;5607;48.302;14.294;2023-06-26T15:54:57;48.00;63.70
11107;DHT22;5607;48.302;14.294;2023-06-26T15:57:43;48.00;61.80
11107;DHT22;5607;48.302;14.294;2023-06-26T16:00:29;48.60;57.10
11107;DHT22;5607;48.302;14.294;2023-06-26T16:03:15;49.50;59.20
11107;DHT22;5607;48.302;14.294;2023-06-26T16:06:01;47.20;62.40
11107;DHT22;5607;48.302;14.294;2023-06-26T16:08:48;46.90;66.00
11107;DHT22;5607;48.302;14.294;2023-06-26T16:11:34;45.30;73.00
11107;DHT22;5607;48.302;14.294;2023-06-26T16:14:21;44.80;73.10
11107;DHT22;5607;48.302;14.294;2023-06-26T16:17:08;41.90;83.70
11107;DHT22;5607;48.302;14.294;2023-06-26T16:19:54;39.60;93.80
11107;DHT22;5607;48.302;14.294;2023-06-26T16:22:40;37.50;99.90
11107;DHT22;5607;48.302;14.294;2023-06-26T16:25:27;36.50;99.90
11107;DHT22;5607;48.302;14.294;2023-06-26T16:28:13;35.70;99.90
11107;DHT22;5607;48.302;14.294;2023-06-26T16:30:59;35.10;99.90
11107;DHT22;5607;48.302;14.294;2023-06-26T16:33:46;34.90;99.90
11107;DHT22;5607;48.302;14.294;2023-06-26T16:36:32;34.50;99.90
11107;DHT22;5607;48.302;14.294;2023-06-26T16:39:18;34.40;99.90
11107;DHT22;5607;48.302;14.294;2023-06-26T16:42:10;34.30;98.80
11107;DHT22;5607;48.302;14.294;2023-06-26T16:44:58;34.10;99.90
11107;DHT22;5607;48.302;14.294;2023-06-26T16:47:44;34.00;96.20
11107;DHT22;5607;48.302;14.294;2023-06-26T16:50:30;33.90;95.20
11107;DHT22;5607;48.302;14.294;2023-06-26T16:53:17;33.70;99.90
11107;DHT22;5607;48.302;14.294;2023-06-26T16:56:03;33.70;93.40
11107;DHT22;5607;48.302;14.294;2023-06-26T16:58:49;33.70;99.80
11107;DHT22;5607;48.302;14.294;2023-06-26T17:01:35;33.80;98.00
11107;DHT22;5607;48.302;14.294;2023-06-26T17:04:22;33.70;99.90
11107;DHT22;5607;48.302;14.294;2023-06-26T17:07:08;33.30;99.90
11107;DHT22;5607;48.302;14.294;2023-06-26T17:09:54;33.20;99.80
11107;DHT22;5607;48.302;14.294;2023-06-26T17:12:40;33.20;91.10
11107;DHT22;5607;48.302;14.294;2023-06-26T17:15:27;33.20;92.70
11107;DHT22;5607;48.302;14.294;2023-06-26T17:18:14;33.30;87.00
11107;DHT22;5607;48.302;14.294;2023-06-26T17:21:00;33.30;92.10
11107;DHT22;5607;48.302;14.294;2023-06-26T17:23:46;33.10;98.40
11107;DHT22;5607;48.302;14.294;2023-06-26T17:26:33;33.00;95.20
11107;DHT22;5607;48.302;14.294;2023-06-26T17:29:20;33.00;97.10
11107;DHT22;5607;48.302;14.294;2023-06-26T17:32:06;32.90;99.90
11107;DHT22;5607;48.302;14.294;2023-06-26T17:34:53;32.80;99.90
11107;DHT22;5607;48.302;14.294;2023-06-26T17:37:39;32.70;99.90
11107;DHT22;5607;48.302;14.294;2023-06-26T17:40:25;32.70;97.00
11107;DHT22;5607;48.302;14.294;2023-06-26T17:43:13;32.70;99.90
11107;DHT22;5607;48.302;14.294;2023-06-26T17:45:59;32.60;99.90